Time;durP1;ratioP1;P1;durP2;ratioP2;P2;SDS_P1;SDS_P2;PMS_P1;PMS_P2;Temp;Humidity;BMP_temperature;BMP_pressure;BME280_temperature;BME280_humidity;BME280_pressure;Samples;Min_cycle;Max_cycle;Signal;HPM_P1;HPM_P2
2021/07/19 00:01:23;;;;;;;5.68;5.15;;;17.70;99.90;;;18.68;88.44;98230.94;5211060;28;20197;-62
2021/07/19 00:03:59;;;;;;;5.43;5.03;;;17.80;99.90;;;18.67;88.71;98222.28;5225647;28;20248;-63
2021/07/19 00:06:32;;;;;;;6.05;5.55;;;17.80;99.90;;;18.59;88.88;98222.88;5225763;28;20325;-62
2021/07/19 00:09:06;;;;;;;5.63;5.22;;;17.70;99.90;;;18.61;88.23;98218.66;5220815;28;20193;-62
2021/07/19 00:11:41;;;;;;;5.60;5.00;;;17.70;99.90;;;18.60;88.05;98210.00;5218996;28;20247;-62
2021/07/19 00:14:14;;;;;;;6.05;5.43;;;17.70;99.90;;;18.62;88.53;98217.78;5224012;28;20211;-62
2021/07/19 00:16:47;;;;;;;6.70;5.53;;;17.60;99.90;;;18.61;88.37;98210.88;5222449;28;20625;-62
2021/07/19 00:19:22;;;;;;;5.95;5.45;;;17.70;99.90;;;18.58;88.54;98213.38;5208293;28;20206;-62
2021/07/19 00:21:56;;;;;;;5.43;4.93;;;17.70;99.90;;;18.56;88.59;98209.84;5210029;28;20196;-63
2021/07/19 00:24:29;;;;;;;6.30;5.70;;;17.60;99.90;;;18.58;88.70;98213.38;5209353;28;20696;-63
2021/07/19 00:27:02;;;;;;;5.68;5.15;;;17.60;99.90;;;18.58;87.83;98215.97;5221142;28;20212;-60
2021/07/19 00:29:37;;;;;;;5.80;4.97;;;17.60;99.90;;;18.58;87.76;98210.78;5223194;28;20201;-62
2021/07/19 00:32:10;;;;;;;5.68;5.03;;;17.60;99.90;;;18.45;88.06;98210.38;5220726;28;20228;-62
2021/07/19 00:34:44;;;;;;;6.53;5.25;;;17.50;99.90;;;18.37;87.80;98211.88;5219487;28;20189;-62
2021/07/19 00:37:17;;;;;;;5.40;4.90;;;17.50;99.90;;;18.36;88.53;98209.22;5228088;28;20221;-62
2021/07/19 00:39:50;;;;;;;5.82;5.32;;;17.40;99.90;;;18.37;88.68;98214.47;5229352;28;20564;-62
2021/07/19 00:42:23;;;;;;;4.88;4.43;;;17.50;99.90;;;18.33;87.97;98212.59;5228679;28;20208;-62
2021/07/19 00:44:56;;;;;;;6.20;5.60;;;17.40;99.90;;;18.33;88.66;98220.34;5223078;28;20201;-63
2021/07/19 00:47:29;;;;;;;7.20;5.10;;;17.40;99.90;;;18.31;88.42;98206.47;5215463;28;20201;-62
2021/07/19 00:50:06;;;;;;;5.47;4.90;;;17.40;99.90;;;18.31;87.73;98211.66;5222181;28;20193;-62
2021/07/19 00:52:40;;;;;;;5.30;4.80;;;17.40;99.90;;;18.24;88.31;98207.13;5221448;28;20263;-62
2021/07/19 00:55:16;;;;;;;5.65;5.10;;;17.30;99.90;;;18.12;89.63;98214.50;5218793;28;20218;-63
2021/07/19 00:57:50;;;;;;;5.38;4.88;;;17.30;99.90;;;18.10;89.22;98216.13;5227910;28;20204;-62
2021/07/19 01:00:23;;;;;;;5.45;4.93;;;17.20;99.90;;;18.02;89.63;98214.16;5218100;28;20202;-62
2021/07/19 01:02:58;;;;;;;5.55;5.05;;;17.20;99.90;;;18.10;89.20;98214.41;5223732;28;20211;-63
2021/07/19 01:05:33;;;;;;;5.47;4.97;;;17.20;99.90;;;18.10;89.19;98210.97;5224096;28;20225;-63
2021/07/19 01:08:07;;;;;;;5.38;4.88;;;17.20;99.90;;;18.07;89.45;98214.31;5226900;28;20200;-62
2021/07/19 01:10:40;;;;;;;5.78;5.28;;;17.20;99.90;;;18.09;88.65;98209.22;5216012;28;20657;-62
2021/07/19 01:13:13;;;;;;;5.90;5.35;;;17.20;99.90;;;18.06;88.49;98214.28;5220733;28;20665;-62
2021/07/19 01:15:46;;;;;;;5.53;5.03;;;17.10;99.90;;;18.04;88.42;98205.59;5212036;28;20261;-62
2021/07/19 01:18:20;;;;;;;5.10;4.70;;;17.10;99.90;;;18.00;88.87;98215.84;5217579;28;20296;-62
2021/07/19 01:21:19;;;;;;;6.20;5.60;;;17.10;99.90;;;17.96;89.08;98211.38;5222330;28;20211;-62
2021/07/19 01:24:29;;;;;;;5.78;5.38;;;17.10;99.90;;;17.92;90.02;98222.47;5216117;28;20202;-62
2021/07/19 01:27:33;;;;;;;6.00;5.50;;;17.00;99.90;;;17.85;90.29;98210.13;5180108;28;20729;-62
2021/07/19 01:30:09;;;;;;;5.65;5.15;;;17.00;99.90;;;17.84;89.90;98202.34;5214252;28;20204;-62
2021/07/19 01:32:46;;;;;;;6.05;5.45;;;16.90;99.90;;;17.82;90.39;98202.25;5221001;28;20226;-62
2021/07/19 01:35:20;;;;;;;6.05;5.10;;;17.00;99.90;;;17.86;89.86;98196.38;5215830;28;20216;-62
2021/07/19 01:37:53;;;;;;;5.70;5.05;;;17.00;99.90;;;17.85;90.05;98194.59;5227436;28;20211;-62
2021/07/19 01:40:27;;;;;;;5.53;5.03;;;17.00;99.90;;;17.88;90.30;98193.84;5219147;28;20198;-63
2021/07/19 01:43:01;;;;;;;5.07;4.63;;;17.00;99.90;;;17.87;90.29;98195.53;5223764;28;20194;-62
2021/07/19 01:45:38;;;;;;;5.63;4.95;;;17.00;99.90;;;17.87;89.80;98190.38;5216948;28;20459;-62
2021/07/19 01:48:12;;;;;;;5.50;5.00;;;17.00;99.90;;;17.85;89.81;98191.16;5216735;28;20288;-63
2021/07/19 01:50:47;;;;;;;6.07;5.47;;;17.00;99.90;;;17.86;90.02;98180.00;5214673;28;20576;-62
2021/07/19 01:53:21;;;;;;;5.90;5.40;;;17.00;99.90;;;17.88;90.32;98188.66;5207848;28;20707;-62
2021/07/19 01:55:54;;;;;;;5.82;5.22;;;17.00;99.90;;;17.88;90.11;98184.38;5211733;28;20218;-62
2021/07/19 01:58:29;;;;;;;5.95;5.45;;;16.90;99.90;;;17.83;90.07;98183.34;5226530;28;20201;-62
2021/07/19 02:01:05;;;;;;;6.38;5.78;;;16.90;99.90;;;17.76;90.90;98189.09;5220147;28;20200;-62
2021/07/19 02:03:38;;;;;;;5.78;5.22;;;16.90;99.90;;;17.72;90.82;98202.75;5217866;28;20201;-62
2021/07/19 02:06:13;;;;;;;5.32;4.75;;;16.90;99.90;;;17.68;90.01;98203.47;5218017;28;20228;-62
2021/07/19 02:08:50;;;;;;;5.40;4.90;;;16.80;99.90;;;17.62;89.78;98198.97;5220539;28;20193;-61
2021/07/19 02:11:28;;;;;;;5.38;4.80;;;16.70;99.90;;;17.60;89.46;98200.63;5216329;28;20201;-60
2021/07/19 02:14:04;;;;;;;5.95;5.35;;;16.70;99.90;;;17.52;89.51;98200.34;5215607;28;20620;-60
2021/07/19 02:16:54;;;;;;;5.40;4.93;;;16.60;99.90;;;17.55;89.71;98197.88;5219372;28;20221;-61
2021/07/19 02:19:30;;;;;;;5.20;4.80;;;16.60;99.90;;;17.56;89.32;98202.22;5226940;28;20296;-61
2021/07/19 02:22:04;;;;;;;5.40;5.00;;;16.60;99.90;;;17.52;90.13;98207.25;5214543;28;20287;-61
2021/07/19 02:24:38;;;;;;;4.93;4.63;;;16.60;99.90;;;17.52;90.00;98204.66;5220395;28;20576;-61
2021/07/19 02:27:11;;;;;;;5.22;4.80;;;16.60;99.90;;;17.49;90.02;98205.41;5217441;28;20217;-61
2021/07/19 02:29:45;;;;;;;5.53;5.13;;;16.60;99.90;;;17.42;90.01;98203.44;5218065;28;20285;-61
2021/07/19 02:32:21;;;;;;;7.85;5.45;;;16.50;99.90;;;17.38;89.63;98199.00;5215937;28;20197;-61
2021/07/19 02:34:54;;;;;;;5.65;5.22;;;16.40;99.90;;;17.36;90.08;98200.63;5225348;28;20227;-61
2021/07/19 02:37:28;;;;;;;6.00;5.47;;;16.50;99.90;;;17.32;90.18;98196.19;5221843;28;20202;-61
2021/07/19 02:40:01;;;;;;;6.28;5.68;;;16.50;99.90;;;17.33;90.36;98197.94;5214886;28;20202;-61
2021/07/19 02:42:35;;;;;;;5.85;5.32;;;16.50;99.90;;;17.33;90.62;98197.94;5221283;28;20207;-61
2021/07/19 02:45:14;;;;;;;6.55;5.95;;;16.50;99.90;;;17.37;90.48;98196.34;5225155;28;20189;-61
2021/07/19 02:47:51;;;;;;;8.38;5.55;;;16.50;99.90;;;17.37;90.38;98197.25;5213745;28;20227;-60
2021/07/19 02:50:26;;;;;;;5.72;5.15;;;16.50;99.90;;;17.33;90.58;98200.53;5222557;28;20296;-61
2021/07/19 02:53:02;;;;;;;6.05;5.47;;;16.50;99.90;;;17.35;91.02;98196.31;5223247;28;20358;-61
2021/07/19 02:55:36;;;;;;;6.63;5.75;;;16.50;99.90;;;17.37;91.39;98199.81;5221148;28;20710;-60
2021/07/19 02:58:14;;;;;;;6.00;5.50;;;16.60;99.90;;;17.36;91.14;98197.16;5215849;28;20197;-60
2021/07/19 03:00:49;;;;;;;5.88;5.30;;;16.50;99.90;;;17.39;91.24;98208.50;5213424;28;20209;-61
2021/07/19 03:03:27;;;;;;;6.60;5.78;;;16.50;99.90;;;17.34;90.46;98208.34;5224625;28;20638;-61
2021/07/19 03:06:05;;;;;;;5.03;4.63;;;16.40;99.90;;;17.32;89.54;98209.09;5219703;28;20267;-60
2021/07/19 03:08:42;;;;;;;4.93;4.43;;;16.30;99.90;;;17.41;88.30;98201.69;5214682;28;20212;-61
2021/07/19 03:11:20;;;;;;;5.15;4.70;;;16.30;99.90;;;17.36;88.79;98203.22;5222001;28;20197;-61
2021/07/19 03:13:58;;;;;;;5.50;5.00;;;16.40;99.90;;;17.28;88.45;98202.06;5216971;28;20231;-60
2021/07/19 03:16:33;;;;;;;6.07;4.95;;;16.30;99.90;;;17.28;88.62;98199.47;5220219;28;20332;-61
2021/07/19 03:19:10;;;;;;;5.75;5.18;;;16.20;99.90;;;17.17;88.97;98187.88;5220619;28;20193;-59
2021/07/19 03:21:45;;;;;;;5.28;4.80;;;16.20;99.90;;;17.16;88.96;98188.69;5223717;28;20197;-61
2021/07/19 03:24:19;;;;;;;5.07;4.57;;;16.20;99.90;;;17.15;88.77;98187.81;5214727;28;20223;-61
2021/07/19 03:26:53;;;;;;;4.95;4.45;;;16.20;99.90;;;17.10;89.28;98179.91;5221348;28;20262;-59
2021/07/19 03:29:27;;;;;;;5.32;4.93;;;16.20;99.90;;;17.07;89.24;98182.38;5218195;28;20197;-60
2021/07/19 03:32:01;;;;;;;4.95;4.55;;;16.10;99.90;;;17.03;89.53;98185.69;5221056;28;20220;-61
2021/07/19 03:34:36;;;;;;;5.53;5.03;;;16.20;99.90;;;17.10;88.44;98190.22;5211120;28;20575;-61
2021/07/19 03:37:09;;;;;;;5.03;4.53;;;16.10;99.90;;;17.08;89.03;98191.91;5220089;28;20225;-60
2021/07/19 03:39:43;;;;;;;5.43;5.03;;;16.10;99.90;;;16.99;89.07;98191.53;5213044;28;20217;-61
2021/07/19 03:42:17;;;;;;;5.75;5.25;;;16.00;99.90;;;16.99;88.82;98196.69;5218131;28;20288;-61
2021/07/19 03:44:53;;;;;;;5.65;4.95;;;16.00;99.90;;;17.03;88.52;98196.00;5219427;28;20194;-61
2021/07/19 03:47:27;;;;;;;5.47;4.97;;;16.00;99.90;;;17.04;88.91;98200.34;5220447;28;20664;-61
2021/07/19 03:50:03;;;;;;;5.70;5.30;;;16.00;99.90;;;16.95;89.01;98199.13;5215506;28;20246;-61
2021/07/19 03:52:39;;;;;;;5.68;5.07;;;16.00;99.90;;;16.86;88.65;98192.78;5210229;28;20292;-60
2021/07/19 03:55:15;;;;;;;5.70;5.10;;;15.90;99.90;;;16.85;88.77;98198.78;5225449;28;20232;-61
2021/07/19 03:57:51;;;;;;;4.65;4.35;;;15.90;99.90;;;16.88;88.58;98187.66;5206398;28;20204;-61
2021/07/19 04:00:26;;;;;;;6.57;5.32;;;15.90;99.90;;;16.91;88.74;98195.53;5205350;28;20289;-60
2021/07/19 04:03:04;;;;;;;5.43;4.90;;;16.00;99.90;;;16.88;89.39;98192.84;5220101;28;20193;-61
2021/07/19 04:05:40;;;;;;;5.35;4.85;;;16.00;99.90;;;16.90;89.25;98193.78;5223445;28;20210;-61
2021/07/19 04:08:14;;;;;;;5.28;4.88;;;16.00;99.90;;;16.93;89.00;98201.66;5211640;28;20573;-61
2021/07/19 04:10:50;;;;;;;5.43;4.97;;;16.00;99.90;;;16.95;88.89;98205.16;5211395;28;20220;-59
2021/07/19 04:13:24;;;;;;;5.72;5.25;;;16.00;99.90;;;16.90;89.41;98201.53;5218387;28;20207;-60
2021/07/19 04:15:59;;;;;;;5.90;5.40;;;16.00;99.90;;;16.96;88.89;98206.91;5212342;28;20232;-61
2021/07/19 04:18:32;;;;;;;6.05;5.45;;;16.10;99.90;;;16.98;88.55;98200.13;5222678;28;20254;-61
2021/07/19 04:21:07;;;;;;;5.53;5.00;;;16.10;99.90;;;17.05;88.89;98207.28;5224962;28;20189;-60
2021/07/19 04:23:41;;;;;;;5.75;5.20;;;16.10;99.90;;;17.06;88.12;98209.03;5221862;28;20211;-61
2021/07/19 04:26:15;;;;;;;5.85;5.28;;;16.10;99.90;;;17.07;88.32;98210.78;5210736;28;20211;-60
2021/07/19 04:28:49;;;;;;;5.20;4.80;;;16.10;99.90;;;17.08;88.41;98209.97;5225205;28;20236;-60
2021/07/19 04:31:22;;;;;;;5.50;5.00;;;16.10;99.90;;;17.07;88.39;98205.63;5217397;28;20216;-61
2021/07/19 04:33:55;;;;;;;6.88;5.03;;;16.10;99.90;;;17.24;87.15;98214.00;5205093;28;20222;-60
2021/07/19 04:36:32;;;;;;;5.68;5.15;;;16.10;99.90;;;17.23;86.84;98216.53;5216605;28;20713;-60
2021/07/19 04:39:06;;;;;;;5.63;5.07;;;16.10;99.90;;;17.21;87.51;98213.00;5213751;28;20197;-59
2021/07/19 04:41:39;;;;;;;5.63;4.85;;;16.20;99.90;;;17.31;86.53;98209.91;5206173;28;20202;-61
2021/07/19 04:44:12;;;;;;;5.88;5.20;;;16.30;99.90;;;17.36;86.58;98204.94;5205425;28;20202;-60
2021/07/19 04:46:45;;;;;;;5.25;4.72;;;16.30;99.90;;;17.37;86.09;98201.50;5206060;28;20604;-61
2021/07/19 04:49:18;;;;;;;6.45;5.25;;;16.40;99.90;;;17.40;86.50;98205.09;5212037;28;20289;-61
2021/07/19 04:51:53;;;;;;;5.93;5.32;;;16.40;99.90;;;17.46;86.31;98202.72;5219364;28;20201;-64
2021/07/19 04:54:32;;;;;;;6.05;5.53;;;16.40;99.90;;;17.46;87.33;98204.44;5225100;28;20223;-64
2021/07/19 04:57:08;;;;;;;5.68;4.97;;;16.50;99.90;;;17.56;86.27;98209.97;5223708;28;20219;-64
2021/07/19 04:59:45;;;;;;;6.00;5.50;;;16.50;99.90;;;17.68;87.17;98206.06;5225222;28;20284;-64
2021/07/19 05:02:21;;;;;;;6.05;5.00;;;16.60;99.90;;;17.78;85.40;98200.41;5223687;28;20666;-64
2021/07/19 05:04:57;;;;;;;5.45;4.95;;;16.70;99.90;;;17.84;85.38;98203.22;5214933;28;20742;-64
2021/07/19 05:07:33;;;;;;;5.72;5.28;;;16.70;99.90;;;17.98;84.99;98195.91;5230280;28;20221;-64
2021/07/19 05:10:09;;;;;;;5.35;4.95;;;16.90;99.90;;;18.27;84.21;98199.44;5229593;28;20295;-64
2021/07/19 05:12:44;;;;;;;5.90;5.20;;;17.10;99.90;;;18.50;83.02;98204.47;5224748;28;20668;-61
2021/07/19 05:15:17;;;;;;;5.22;4.72;;;17.30;99.90;;;18.69;81.64;98210.28;5209476;28;20224;-59
2021/07/19 05:17:51;;;;;;;5.47;5.05;;;17.50;99.90;;;18.89;81.30;98210.91;5214654;28;20185;-61
2021/07/19 05:20:24;;;;;;;6.30;5.25;;;17.70;99.90;;;19.13;79.68;98204.69;5222759;28;20574;-60
2021/07/19 05:22:58;;;;;;;5.55;5.15;;;18.00;99.90;;;19.34;79.01;98213.09;5218442;28;20190;-60
2021/07/19 05:25:34;;;;;;;5.57;5.07;;;18.10;99.90;;;19.75;77.82;98205.59;5225757;28;20216;-60
2021/07/19 05:28:10;;;;;;;5.55;5.03;;;18.40;99.90;;;20.27;75.36;98210.34;5212528;28;20198;-61
2021/07/19 05:30:50;;;;;;;5.40;4.90;;;18.90;99.90;;;20.91;73.04;98207.53;5217516;28;20751;-61
2021/07/19 05:33:25;;;;;;;5.05;4.63;;;19.40;99.90;;;21.41;70.60;98206.88;5212107;28;20276;-61
2021/07/19 05:35:58;;;;;;;5.07;4.55;;;19.80;99.90;;;21.87;68.29;98210.34;5211885;28;20232;-61
2021/07/19 05:38:33;;;;;;;5.85;4.55;;;20.10;99.90;;;22.26;66.80;98211.88;5209900;28;20246;-61
2021/07/19 05:41:08;;;;;;;4.95;4.55;;;20.40;99.90;;;22.11;66.60;98214.22;5224256;28;20193;-61
2021/07/19 05:43:41;;;;;;;5.28;4.78;;;20.30;99.90;;;21.72;68.08;98210.94;5211281;28;20284;-61
2021/07/19 05:46:14;;;;;;;5.57;5.18;;;20.00;99.90;;;21.33;70.30;98211.88;5207928;28;20609;-61
2021/07/19 05:48:47;;;;;;;6.45;4.97;;;19.70;99.90;;;21.01;71.19;98213.81;5216709;28;20224;-62
2021/07/19 05:51:20;;;;;;;5.30;4.80;;;19.40;99.90;;;20.94;71.93;98209.31;5219668;28;20204;-61
2021/07/19 05:53:55;;;;;;;5.35;4.85;;;19.30;99.90;;;21.03;71.47;98206.94;5219883;28;20201;-62
2021/07/19 05:56:28;;;;;;;5.65;5.13;;;19.40;99.90;;;21.23;71.45;98198.66;5215525;28;20777;-62
2021/07/19 05:59:02;;;;;;;6.28;4.70;;;19.60;99.90;;;21.87;69.95;98199.91;5227192;28;20201;-62
2021/07/19 06:01:35;;;;;;;5.53;5.03;;;20.10;99.90;;;22.35;66.40;98198.13;5216332;28;20197;-63
2021/07/19 06:04:09;;;;;;;6.53;4.90;;;20.50;99.90;;;23.02;65.21;98199.16;5222575;28;20600;-62
2021/07/19 06:06:43;;;;;;;5.05;4.55;;;21.10;99.90;;;23.62;62.86;98194.66;5220044;28;20213;-62
2021/07/19 06:09:17;;;;;;;5.28;4.70;;;21.50;99.90;;;23.97;61.72;98191.53;5213244;28;20226;-63
2021/07/19 06:11:50;;;;;;;4.55;3.97;;;21.70;99.90;;;24.46;60.60;98194.56;5221236;28;20521;-62
2021/07/19 06:14:23;;;;;;;4.72;4.30;;;22.10;99.90;;;24.94;59.06;98204.47;5215831;28;20197;-63
2021/07/19 06:16:56;;;;;;;4.57;4.18;;;22.50;99.90;;;25.53;57.34;98200.41;5215149;28;20229;-63
2021/07/19 06:19:30;;;;;;;4.60;4.20;;;22.70;99.90;;;25.89;55.39;98203.13;5208046;28;20586;-63
2021/07/19 06:22:04;;;;;;;4.82;4.43;;;22.90;99.90;;;25.74;56.11;98198.69;5207302;28;20189;-63
2021/07/19 06:24:39;;;;;;;4.57;3.83;;;22.90;99.90;;;26.23;55.19;98194.41;5217875;28;20220;-63
2021/07/19 06:27:12;;;;;;;4.95;4.45;;;23.10;99.90;;;26.63;53.44;98193.53;5211545;28;20311;-63
2021/07/19 06:29:45;;;;;;;5.03;4.53;;;23.20;99.90;;;26.80;52.56;98185.66;5208094;28;20201;-63
2021/07/19 06:32:18;;;;;;;4.82;4.43;;;23.40;99.90;;;26.89;52.85;98191.72;5207982;28;20204;-63
2021/07/19 06:34:51;;;;;;;4.85;4.43;;;23.70;99.90;;;27.34;51.51;98195.09;5207234;28;20284;-64
2021/07/19 06:37:24;;;;;;;4.65;3.95;;;24.00;99.90;;;27.63;50.14;98187.06;5216922;28;20572;-63
2021/07/19 06:39:59;;;;;;;4.63;4.22;;;24.30;99.90;;;27.86;49.67;98193.97;5215029;28;20284;-63
2021/07/19 06:42:32;;;;;;;5.03;4.50;;;24.50;99.90;;;28.32;48.55;98192.75;5212697;28;20201;-64
2021/07/19 06:45:13;;;;;;;5.15;4.55;;;24.80;99.90;;;28.35;48.42;98195.34;5222521;28;20228;-63
2021/07/19 06:47:46;;;;;;;5.93;4.57;;;25.00;99.90;;;27.88;49.49;98186.09;5218986;28;20193;-64
2021/07/19 06:50:19;;;;;;;5.10;4.60;;;25.00;99.90;;;27.44;51.22;98179.31;5221296;28;20290;-63
2021/07/19 06:52:53;;;;;;;5.25;4.28;;;24.90;99.90;;;27.79;49.78;98182.66;5224692;28;20199;-63
2021/07/19 06:55:27;;;;;;;4.65;4.25;;;25.00;99.90;;;28.49;47.75;98169.84;5214759;28;20235;-63
2021/07/19 06:58:00;;;;;;;4.93;4.50;;;25.40;99.90;;;28.92;46.88;98169.38;5210427;28;20204;-63
2021/07/19 07:00:33;;;;;;;4.85;4.45;;;25.70;99.90;;;29.37;46.09;98172.38;5207436;28;20239;-64
2021/07/19 07:03:07;;;;;;;4.30;4.00;;;26.00;99.90;;;29.64;45.17;98169.38;5221099;28;20205;-64
2021/07/19 07:05:40;;;;;;;4.90;4.50;;;26.20;99.90;;;29.91;44.73;98164.63;5220202;28;20262;-64
2021/07/19 07:08:13;;;;;;;4.53;4.22;;;26.60;99.90;;;30.05;44.19;98167.91;5225028;28;20200;-64
2021/07/19 07:10:49;;;;;;;4.75;4.25;;;26.90;99.90;;;30.28;43.79;98164.91;5220548;28;20577;-64
2021/07/19 07:13:22;;;;;;;4.82;4.43;;;27.00;99.90;;;29.48;45.85;98166.97;5216115;28;20200;-64
2021/07/19 07:15:55;;;;;;;5.20;4.43;;;26.90;99.90;;;29.57;45.48;98159.81;5224141;28;20247;-64
2021/07/19 07:18:28;;;;;;;4.68;4.22;;;26.80;99.90;;;29.91;44.18;98161.13;5212740;28;20239;-64
2021/07/19 07:21:01;;;;;;;6.78;4.40;;;27.10;99.90;;;30.23;43.38;98161.47;5215866;28;20193;-64
2021/07/19 07:23:34;;;;;;;5.43;4.65;;;27.20;99.60;;;30.23;43.44;98161.47;5217310;28;20198;-64
2021/07/19 07:26:09;;;;;;;4.80;4.30;;;27.40;99.30;;;30.39;43.25;98159.47;5219443;28;20208;-64
2021/07/19 07:28:42;;;;;;;4.57;4.18;;;27.50;99.20;;;30.44;43.11;98162.88;5214644;28;20591;-64
2021/07/19 07:31:15;;;;;;;4.10;3.80;;;27.70;98.60;;;30.75;42.79;98157.03;5220409;28;20199;-64
2021/07/19 07:33:48;;;;;;;4.95;4.45;;;27.90;98.80;;;30.45;42.99;98156.72;5224851;28;20240;-64
2021/07/19 07:36:22;;;;;;;4.57;4.18;;;27.80;98.30;;;30.65;42.35;98158.97;5223875;28;20225;-61
2021/07/19 07:38:55;;;;;;;5.40;4.53;;;27.90;97.70;;;30.97;41.79;98160.16;5219651;28;20201;-66
2021/07/19 07:41:30;;;;;;;4.88;4.43;;;28.10;97.60;;;31.09;40.78;98164.31;5222266;28;20205;-61
2021/07/19 07:44:04;;;;;;;6.70;4.20;;;28.10;97.00;;;31.51;40.53;98153.78;5222822;28;20704;-61
2021/07/19 07:46:37;;;;;;;4.80;4.00;;;28.30;97.50;;;31.88;39.69;98151.16;5212897;28;20220;-61
2021/07/19 07:49:10;;;;;;;4.43;4.13;;;28.60;97.00;;;31.41;41.43;98145.16;5212744;28;20579;-62
2021/07/19 07:51:43;;;;;;;4.55;4.25;;;28.60;97.50;;;31.95;39.55;98151.91;5210249;28;20399;-61
2021/07/19 07:54:18;;;;;;;4.25;3.95;;;28.60;96.80;;;32.04;39.10;98141.09;5219104;28;20205;-61
2021/07/19 07:56:52;;;;;;;6.35;4.53;;;28.80;96.40;;;32.68;37.60;98144.75;5213767;28;20607;-61
2021/07/19 07:59:32;;;;;;;5.85;4.35;;;28.90;96.00;;;32.53;38.22;98145.16;5219941;28;20573;-62
2021/07/19 08:02:06;;;;;;;7.38;4.30;;;29.00;95.50;;;32.46;37.42;98147.09;5220120;28;20208;-61
2021/07/19 08:04:40;;;;;;;4.32;4.03;;;29.10;95.20;;;33.12;37.21;98139.13;5217272;28;20200;-61
2021/07/19 08:07:13;;;;;;;4.80;4.32;;;29.30;95.10;;;33.20;36.71;98143.28;5223012;28;20213;-62
2021/07/19 08:09:46;;;;;;;6.43;4.05;;;29.40;94.40;;;33.38;36.19;98141.88;5226235;28;20585;-62
2021/07/19 08:12:20;;;;;;;4.70;4.05;;;29.70;94.10;;;33.55;35.98;98149.34;5220208;28;20203;-63
2021/07/19 08:14:55;;;;;;;4.43;4.03;;;29.80;94.30;;;33.77;35.45;98138.06;5217489;28;20201;-64
2021/07/19 08:17:28;;;;;;;4.43;4.00;;;29.90;93.80;;;33.71;35.52;98139.13;5214441;28;20216;-65
2021/07/19 08:20:02;;;;;;;4.65;4.07;;;29.70;94.20;;;33.46;37.02;98138.13;5222028;28;20189;-65
2021/07/19 08:22:35;;;;;;;4.47;3.97;;;30.10;94.70;;;32.89;38.14;98135.34;5221897;28;20228;-65
2021/07/19 08:25:09;;;;;;;5.30;4.85;;;30.00;94.50;;;32.64;38.34;98135.13;5206336;28;20194;-65
2021/07/19 08:27:43;;;;;;;4.50;4.10;;;30.00;94.00;;;32.41;38.81;98134.88;5208539;28;20668;-65
2021/07/19 08:30:18;;;;;;;4.80;4.22;;;29.80;94.30;;;32.42;38.94;98132.19;5208524;28;20570;-65
2021/07/19 08:32:51;;;;;;;4.60;4.20;;;29.80;94.30;;;32.08;39.36;98135.69;5214153;28;20204;-64
2021/07/19 08:35:24;;;;;;;5.85;4.35;;;29.50;94.40;;;32.20;38.76;98126.56;5206064;28;20221;-65
2021/07/19 08:37:58;;;;;;;4.38;3.97;;;29.50;94.30;;;32.20;38.25;98121.28;5208987;28;20588;-65
2021/07/19 08:40:31;;;;;;;4.32;3.88;;;29.80;93.80;;;32.19;38.60;98127.47;5223814;28;20205;-65
2021/07/19 08:43:07;;;;;;;6.00;4.43;;;29.90;93.80;;;32.21;39.43;98130.09;5219048;28;20556;-65
2021/07/19 08:45:40;;;;;;;12.40;4.95;;;30.00;94.40;;;32.47;39.12;98121.50;5224881;28;20216;-65
2021/07/19 08:48:13;;;;;;;6.88;4.55;;;30.40;93.70;;;32.44;38.75;98118.91;5221080;28;20185;-65
2021/07/19 08:50:47;;;;;;;4.50;4.13;;;30.70;93.10;;;32.37;39.00;98123.50;5213749;28;20200;-65
2021/07/19 08:53:20;;;;;;;8.50;4.07;;;30.40;93.40;;;32.23;40.82;98121.22;5222482;28;20207;-65
2021/07/19 08:55:56;;;;;;;4.68;4.10;;;30.30;94.30;;;32.34;39.36;98118.28;5218465;28;20225;-65
2021/07/19 08:58:31;;;;;;;7.45;4.70;;;30.40;93.80;;;32.51;39.63;98118.75;5209329;28;20819;-65
2021/07/19 09:01:05;;;;;;;4.82;4.43;;;30.60;93.70;;;32.40;39.41;98117.25;5220261;28;20284;-65
2021/07/19 09:03:38;;;;;;;7.85;4.32;;;30.50;93.80;;;32.32;40.13;98114.81;5207429;28;20383;-64
2021/07/19 09:06:12;;;;;;;4.70;4.20;;;30.30;94.10;;;32.31;40.22;98123.66;5206756;28;20229;-64
2021/07/19 09:08:50;;;;;;;4.20;3.83;;;30.20;94.50;;;32.21;40.80;98107.13;5211383;28;20211;-65
2021/07/19 09:11:24;;;;;;;5.68;4.85;;;30.30;94.10;;;32.21;40.21;98116.84;5225636;28;20704;-64
2021/07/19 09:14:01;;;;;;;4.63;4.25;;;30.00;94.60;;;32.07;41.61;98109.28;5223887;28;20197;-64
2021/07/19 09:16:41;;;;;;;4.88;4.57;;;30.00;94.80;;;32.13;41.42;98109.09;5208885;28;20236;-64
2021/07/19 09:19:17;;;;;;;3.97;3.67;;;30.00;94.70;;;32.12;41.13;98102.09;5212139;28;20208;-64
2021/07/19 09:21:55;;;;;;;4.50;4.10;;;30.40;94.60;;;32.21;40.85;98099.19;5213040;28;20694;-65
2021/07/19 09:24:32;;;;;;;5.68;4.43;;;30.70;93.80;;;32.36;40.13;98099.69;5216969;28;20194;-64
2021/07/19 09:27:07;;;;;;;5.38;4.45;;;30.80;92.90;;;32.38;40.24;98095.25;5206156;28;20247;-65
2021/07/19 09:29:42;;;;;;;5.40;4.30;;;30.60;93.50;;;32.09;39.40;98099.53;5207910;28;20208;-64
2021/07/19 09:32:16;;;;;;;4.25;3.95;;;30.20;92.70;;;31.67;40.59;98102.28;5224725;28;20663;-65
2021/07/19 09:34:49;;;;;;;4.55;4.15;;;29.90;93.50;;;31.41;41.89;98094.97;5215725;28;20202;-65
2021/07/19 09:37:22;;;;;;;6.28;5.68;;;29.70;94.60;;;31.20;41.93;98098.94;5215147;28;20217;-64
2021/07/19 09:39:56;;;;;;;4.05;3.75;;;29.40;94.50;;;30.85;42.58;98087.34;5211353;28;20198;-65
2021/07/19 09:42:30;;;;;;;4.25;3.85;;;28.90;95.20;;;30.63;43.61;98091.28;5206602;28;20584;-65
2021/07/19 09:45:05;;;;;;;4.13;3.80;;;28.80;95.80;;;30.53;43.60;98096.75;5209616;28;20208;-64
2021/07/19 09:47:40;;;;;;;3.83;3.53;;;28.90;95.20;;;30.19;42.83;98087.66;5211002;28;20197;-65
2021/07/19 09:50:16;;;;;;;3.95;3.65;;;28.70;94.40;;;30.00;42.80;98088.00;5211660;28;20726;-64
2021/07/19 09:52:49;;;;;;;4.53;4.13;;;28.30;94.70;;;29.80;43.47;98093.59;5221037;28;20199;-65
2021/07/19 09:55:26;;;;;;;4.38;4.07;;;28.10;94.80;;;29.46;43.24;98087.97;5217937;28;20303;-64
2021/07/19 09:58:01;;;;;;;5.18;4.05;;;28.00;94.80;;;29.52;43.89;98085.22;5220584;28;20304;-65
2021/07/19 10:00:35;;;;;;;3.97;3.67;;;28.10;94.90;;;29.69;43.87;98084.13;5207610;28;20197;-65
2021/07/19 10:03:15;;;;;;;4.03;3.72;;;28.40;94.60;;;30.12;43.59;98078.13;5221454;28;20193;-65
2021/07/19 10:05:48;;;;;;;4.35;3.95;;;28.90;94.60;;;30.19;44.22;98085.94;5209861;28;20217;-65
2021/07/19 10:08:23;;;;;;;4.40;4.00;;;29.30;94.40;;;30.66;43.22;98091.22;5207068;28;20192;-64
2021/07/19 10:10:57;;;;;;;4.50;4.20;;;29.40;94.20;;;30.77;41.90;98085.75;5219699;28;20197;-64
2021/07/19 10:13:34;;;;;;;4.22;3.92;;;29.40;93.60;;;30.47;42.32;98085.44;5218206;28;20197;-64
2021/07/19 10:16:09;;;;;;;5.07;4.20;;;29.10;93.70;;;30.15;44.64;98078.94;5213550;28;20237;-63
2021/07/19 10:18:46;;;;;;;4.85;4.45;;;28.80;95.20;;;30.03;44.64;98069.50;5205365;28;20209;-64
2021/07/19 10:21:20;;;;;;;4.40;4.10;;;28.50;95.40;;;30.04;43.80;98070.34;5206216;28;20201;-66
2021/07/19 10:23:53;;;;;;;4.55;4.20;;;28.40;95.00;;;30.07;43.69;98071.16;5213126;28;20189;-64
2021/07/19 10:26:27;;;;;;;5.30;4.90;;;28.40;95.20;;;30.07;44.57;98071.16;5212901;28;20220;-64
2021/07/19 10:29:01;;;;;;;6.90;6.30;;;28.50;95.60;;;29.85;45.06;98075.09;5215352;28;20667;-65
2021/07/19 10:31:36;;;;;;;5.45;4.97;;;28.30;96.50;;;29.61;47.13;98071.03;5219807;28;20291;-66
2021/07/19 10:34:12;;;;;;;4.80;4.40;;;28.00;97.30;;;29.17;48.53;98062.91;5223814;28;20201;-64
2021/07/19 10:36:53;;;;;;;4.68;4.28;;;27.60;98.30;;;29.00;47.94;98062.25;5225820;28;20401;-64
2021/07/19 10:39:33;;;;;;;5.18;4.78;;;27.40;98.30;;;28.86;49.44;98064.19;5220647;28;20193;-64
2021/07/19 10:42:09;;;;;;;5.40;5.00;;;27.30;98.30;;;28.63;50.13;98056.56;5206321;28;20200;-64
2021/07/19 10:44:43;;;;;;;5.45;4.97;;;27.10;99.90;;;28.77;49.11;98054.66;5211919;28;20228;-64
2021/07/19 10:47:22;;;;;;;5.57;5.07;;;27.20;98.20;;;28.97;47.74;98049.13;5218896;28;20759;-64
2021/07/19 10:49:56;;;;;;;4.85;4.50;;;27.60;97.70;;;29.21;44.90;98045.28;5208820;28;20225;-64
2021/07/19 10:52:31;;;;;;;4.65;4.25;;;27.90;95.70;;;29.57;44.62;98046.50;5222480;28;20292;-66